Time;durP1;ratioP1;P1;durP2;ratioP2;P2;SDS_P1;SDS_P2;PMS_P1;PMS_P2;Temp;Humidity;BMP_temperature;BMP_pressure;BME280_temperature;BME280_humidity;BME280_pressure;Samples;Min_cycle;Max_cycle;Signal;HPM_P1;HPM_P2
2022/03/29 00:00:19;;;;;;;2.50;1.90;;;17.50;61.20;;;;;;5245194;28;20192;-72
2022/03/29 00:03:11;;;;;;;4.43;2.30;;;17.50;61.20;;;;;;5242729;28;20587;-72
2022/03/29 00:06:04;;;;;;;2.03;1.70;;;17.50;61.20;;;;;;5244999;28;20217;-72
2022/03/29 00:08:58;;;;;;;1.97;1.70;;;17.50;61.20;;;;;;5244315;28;20208;-73
2022/03/29 00:11:50;;;;;;;2.00;1.80;;;17.50;61.20;;;;;;5244209;28;20341;-72
2022/03/29 00:14:42;;;;;;;1.97;1.70;;;17.50;61.10;;;;;;5245550;28;20216;-73
2022/03/29 00:17:34;;;;;;;2.73;1.90;;;17.50;61.20;;;;;;5244959;28;20200;-73
2022/03/29 00:20:27;;;;;;;3.07;2.13;;;17.50;61.20;;;;;;5240710;28;20200;-72
2022/03/29 00:23:19;;;;;;;2.30;1.90;;;17.40;61.10;;;;;;5224464;28;20220;-73
2022/03/29 00:26:14;;;;;;;2.13;1.80;;;17.50;61.20;;;;;;5240374;28;20258;-72
2022/03/29 00:29:08;;;;;;;2.27;1.87;;;17.50;61.80;;;;;;5244551;28;20299;-72
2022/03/29 00:32:00;;;;;;;2.20;1.83;;;17.40;61.10;;;;;;5243364;28;20192;-72
2022/03/29 00:34:52;;;;;;;2.37;2.00;;;17.40;61.20;;;;;;5244242;28;20196;-73
2022/03/29 00:37:44;;;;;;;1.90;1.77;;;17.40;61.10;;;;;;5243359;28;20683;-73
2022/03/29 00:40:36;;;;;;;2.47;2.27;;;17.40;61.10;;;;;;5244640;28;20193;-73
2022/03/29 00:43:30;;;;;;;2.00;1.87;;;17.40;61.10;;;;;;5244799;28;20216;-73
2022/03/29 00:46:22;;;;;;;3.20;2.37;;;17.40;61.10;;;;;;5244327;28;20303;-72
2022/03/29 00:49:14;;;;;;;2.17;1.90;;;17.50;61.20;;;;;;5239665;28;20813;-73
2022/03/29 00:52:07;;;;;;;2.53;2.10;;;17.40;61.10;;;;;;5244137;28;20221;-73
2022/03/29 00:55:00;;;;;;;1.90;1.70;;;17.40;61.10;;;;;;5244316;28;20193;-73
2022/03/29 00:57:52;;;;;;;2.20;1.83;;;17.40;61.10;;;;;;5243036;28;20192;-73
2022/03/29 01:00:47;;;;;;;2.37;2.17;;;17.40;61.10;;;;;;5243676;28;20189;-72
2022/03/29 01:03:42;;;;;;;2.30;2.07;;;17.40;61.20;;;;;;5243694;28;20782;-73
2022/03/29 01:06:34;;;;;;;2.20;1.83;;;17.40;61.20;;;;;;5243792;28;20227;-73
2022/03/29 01:09:27;;;;;;;3.20;1.77;;;17.40;61.20;;;;;;5243989;28;20670;-72
2022/03/29 01:12:19;;;;;;;2.93;2.00;;;17.40;61.20;;;;;;5232229;28;20197;-72
2022/03/29 01:15:11;;;;;;;3.87;2.00;;;17.40;61.20;;;;;;5232103;28;20272;-73
2022/03/29 01:18:05;;;;;;;2.43;1.97;;;17.40;61.20;;;;;;5242992;28;20280;-73
2022/03/29 01:20:59;;;;;;;2.40;2.20;;;17.40;61.10;;;;;;5243187;28;20249;-73
2022/03/29 01:23:52;;;;;;;2.10;1.90;;;17.40;61.10;;;;;;5243796;28;20220;-73
2022/03/29 01:26:44;;;;;;;2.57;1.90;;;17.40;61.10;;;;;;5242964;28;21013;-73
2022/03/29 01:29:38;;;;;;;2.30;2.10;;;17.40;61.10;;;;;;5243156;28;20203;-72
2022/03/29 01:32:31;;;;;;;2.77;2.10;;;17.40;61.20;;;;;;5223098;28;20189;-73
2022/03/29 01:35:25;;;;;;;2.13;1.70;;;17.40;61.10;;;;;;5223372;28;20197;-72
2022/03/29 01:38:17;;;;;;;2.40;2.03;;;17.40;61.20;;;;;;5223151;28;20643;-72
2022/03/29 01:41:11;;;;;;;2.00;1.80;;;17.40;61.20;;;;;;5228264;28;20208;-72
2022/03/29 01:44:03;;;;;;;2.33;1.90;;;17.40;61.20;;;;;;5243600;28;20220;-73
2022/03/29 01:46:55;;;;;;;2.23;2.00;;;17.40;61.20;;;;;;5244288;28;20217;-72
2022/03/29 01:49:48;;;;;;;2.37;2.00;;;17.40;61.20;;;;;;5235748;28;20775;-72
2022/03/29 01:52:41;;;;;;;2.43;2.23;;;17.40;61.10;;;;;;5241400;28;20218;-72
2022/03/29 01:55:33;;;;;;;2.67;2.30;;;17.40;61.10;;;;;;5243011;28;20195;-73
2022/03/29 01:58:29;;;;;;;2.17;1.97;;;17.40;61.10;;;;;;5243532;28;20217;-72
2022/03/29 02:01:21;;;;;;;2.50;2.10;;;17.40;61.10;;;;;;5242612;28;20335;-73
2022/03/29 02:04:14;;;;;;;2.13;1.87;;;17.40;61.10;;;;;;5243288;28;20224;-72
2022/03/29 02:07:06;;;;;;;2.20;2.00;;;17.40;61.10;;;;;;5243862;28;20212;-72
2022/03/29 02:09:58;;;;;;;2.50;2.00;;;17.40;61.10;;;;;;5241864;28;20203;-72
2022/03/29 02:12:52;;;;;;;3.23;2.43;;;17.40;61.10;;;;;;5243665;28;20220;-72
2022/03/29 02:15:45;;;;;;;2.43;2.03;;;17.40;61.10;;;;;;5244085;28;20192;-73
2022/03/29 02:18:37;;;;;;;2.03;1.80;;;17.40;61.20;;;;;;5243944;28;20658;-72
2022/03/29 02:21:29;;;;;;;2.00;1.80;;;17.40;61.20;;;;;;5243758;28;20200;-72
2022/03/29 02:24:22;;;;;;;3.80;2.03;;;17.40;61.10;;;;;;5243120;28;20220;-72
2022/03/29 02:27:14;;;;;;;2.30;2.10;;;17.40;61.10;;;;;;5243085;28;20216;-72
2022/03/29 02:30:07;;;;;;;2.47;2.27;;;17.40;61.10;;;;;;5241957;28;20211;-72
2022/03/29 02:33:02;;;;;;;2.40;2.17;;;17.40;61.10;;;;;;5242263;28;20224;-73
2022/03/29 02:35:54;;;;;;;3.03;2.30;;;17.40;61.10;;;;;;5242232;28;20228;-72
2022/03/29 02:38:46;;;;;;;2.37;2.10;;;17.40;61.10;;;;;;5241893;28;20561;-72
2022/03/29 02:41:38;;;;;;;2.67;1.87;;;17.40;61.10;;;;;;5242103;28;20658;-72
2022/03/29 02:44:30;;;;;;;2.20;1.90;;;17.40;61.10;;;;;;5242165;28;20277;-72
2022/03/29 02:47:22;;;;;;;2.93;2.03;;;17.40;61.10;;;;;;5243186;28;20273;-72
2022/03/29 02:50:17;;;;;;;2.33;2.13;;;17.40;61.10;;;;;;5234276;28;20230;-72
2022/03/29 02:53:11;;;;;;;2.27;2.07;;;17.40;61.10;;;;;;5241634;28;20703;-72
2022/03/29 02:56:04;;;;;;;2.90;2.37;;;17.40;61.10;;;;;;5241650;28;20208;-73
2022/03/29 02:58:56;;;;;;;2.33;1.80;;;17.40;61.10;;;;;;5242622;28;20268;-73
2022/03/29 03:01:48;;;;;;;2.43;2.03;;;17.40;61.10;;;;;;5242516;28;20253;-73
2022/03/29 03:04:40;;;;;;;3.17;2.33;;;17.40;61.10;;;;;;5245335;28;20684;-72
2022/03/29 03:07:34;;;;;;;2.87;2.17;;;17.40;61.10;;;;;;5240302;28;20224;-72
2022/03/29 03:10:26;;;;;;;2.70;2.40;;;17.40;61.10;;;;;;5224344;28;20197;-72
2022/03/29 03:13:18;;;;;;;2.77;2.33;;;17.40;61.10;;;;;;5236306;28;20217;-73
2022/03/29 03:16:10;;;;;;;2.63;2.27;;;17.40;61.10;;;;;;5239493;28;20265;-72
2022/03/29 03:19:02;;;;;;;2.23;1.93;;;17.40;61.10;;;;;;5246562;28;20747;-72
2022/03/29 03:21:54;;;;;;;2.40;2.20;;;17.40;61.10;;;;;;5244295;28;20196;-72
2022/03/29 03:24:47;;;;;;;2.70;2.13;;;17.40;61.10;;;;;;5244127;28;20217;-72
2022/03/29 03:27:41;;;;;;;2.60;2.30;;;17.40;61.10;;;;;;5246215;28;20212;-73
2022/03/29 03:30:34;;;;;;;2.77;2.10;;;17.40;61.10;;;;;;5246419;28;20196;-72
2022/03/29 03:33:26;;;;;;;2.23;2.03;;;17.40;61.10;;;;;;5243979;28;20216;-72
2022/03/29 03:36:18;;;;;;;2.60;2.23;;;17.40;61.10;;;;;;5246293;28;20200;-72
2022/03/29 03:39:10;;;;;;;2.57;2.37;;;17.40;61.10;;;;;;5245789;28;20188;-73
2022/03/29 03:42:05;;;;;;;2.80;2.43;;;17.40;61.00;;;;;;5244696;28;20237;-72
2022/03/29 03:44:58;;;;;;;2.67;2.30;;;17.40;61.00;;;;;;5244715;28;20504;-73
2022/03/29 03:47:50;;;;;;;5.10;2.07;;;17.40;60.90;;;;;;5246016;28;20223;-72
2022/03/29 03:50:42;;;;;;;2.87;2.40;;;17.40;60.80;;;;;;5238206;28;20279;-72
2022/03/29 03:53:34;;;;;;;3.60;2.60;;;17.40;60.80;;;;;;5245067;28;20840;-72
2022/03/29 03:56:26;;;;;;;2.33;2.13;;;17.40;60.80;;;;;;5244323;28;20209;-72
2022/03/29 03:59:20;;;;;;;2.20;2.00;;;17.40;60.70;;;;;;5244256;28;20667;-72
2022/03/29 04:02:12;;;;;;;2.10;1.90;;;17.40;60.70;;;;;;5244363;28;20197;-73
2022/03/29 04:05:05;;;;;;;2.20;2.00;;;17.40;60.70;;;;;;5246056;28;20307;-72
2022/03/29 04:07:57;;;;;;;2.40;2.20;;;17.50;60.70;;;;;;5244497;28;20362;-72
2022/03/29 04:10:49;;;;;;;3.60;2.37;;;17.50;60.80;;;;;;5245325;28;20575;-73
2022/03/29 04:13:42;;;;;;;2.43;2.00;;;17.50;60.70;;;;;;5243635;28;20750;-72
2022/03/29 04:16:35;;;;;;;2.43;2.20;;;17.50;60.70;;;;;;5244364;28;20207;-73
2022/03/29 04:19:27;;;;;;;2.07;1.87;;;17.50;60.70;;;;;;5244431;28;20315;-72
2022/03/29 04:22:19;;;;;;;1.93;1.80;;;17.50;60.80;;;;;;5245580;28;20193;-72
2022/03/29 04:25:12;;;;;;;2.40;1.80;;;17.50;60.80;;;;;;5245371;28;20204;-72
2022/03/29 04:28:05;;;;;;;2.93;2.13;;;17.50;60.80;;;;;;5244848;28;20789;-72
2022/03/29 04:30:58;;;;;;;3.20;2.07;;;17.50;60.80;;;;;;5245560;28;20257;-72
2022/03/29 04:33:51;;;;;;;2.20;2.00;;;17.50;60.70;;;;;;5245020;28;20213;-72
2022/03/29 04:36:43;;;;;;;2.10;1.90;;;17.50;60.80;;;;;;5245331;28;20222;-73
2022/03/29 04:39:37;;;;;;;2.73;2.00;;;17.50;60.70;;;;;;5244198;28;20197;-71
2022/03/29 04:42:29;;;;;;;2.77;2.30;;;17.50;60.70;;;;;;5243622;28;20289;-72
2022/03/29 04:45:21;;;;;;;2.57;2.07;;;17.50;60.70;;;;;;5232531;28;20196;-72
2022/03/29 04:48:14;;;;;;;2.67;1.93;;;17.50;60.70;;;;;;5223536;28;20810;-72
2022/03/29 04:51:07;;;;;;;2.97;2.17;;;17.50;60.70;;;;;;5223815;28;20228;-72
2022/03/29 04:54:01;;;;;;;3.13;2.20;;;17.50;60.70;;;;;;5225429;28;20220;-72
2022/03/29 04:56:53;;;;;;;2.33;2.13;;;17.50;60.70;;;;;;5244901;27;20193;-72
2022/03/29 04:59:45;;;;;;;2.40;2.00;;;17.50;60.70;;;;;;5244414;28;20200;-72
2022/03/29 05:02:38;;;;;;;2.50;2.30;;;17.60;60.80;;;;;;5245331;28;21057;-73
2022/03/29 05:05:30;;;;;;;2.20;2.00;;;17.60;60.70;;;;;;5231389;28;20192;-73
2022/03/29 05:08:23;;;;;;;2.13;1.93;;;17.60;60.70;;;;;;5243398;28;20241;-72
2022/03/29 05:11:16;;;;;;;2.33;2.13;;;17.50;60.70;;;;;;5243895;28;20276;-72
2022/03/29 05:14:08;;;;;;;2.47;2.13;;;17.50;60.70;;;;;;5236300;28;20710;-72
2022/03/29 05:17:00;;;;;;;2.83;1.80;;;17.60;60.70;;;;;;5242452;28;20197;-73
2022/03/29 05:19:52;;;;;;;2.40;1.93;;;17.60;60.80;;;;;;5242705;28;20193;-72
2022/03/29 05:22:46;;;;;;;2.17;1.90;;;17.60;60.80;;;;;;5223769;28;20232;-72
2022/03/29 05:25:39;;;;;;;2.47;2.27;;;17.60;60.80;;;;;;5222311;28;20203;-73
2022/03/29 05:28:31;;;;;;;3.03;2.20;;;17.60;60.80;;;;;;5223403;28;20221;-73
2022/03/29 05:31:23;;;;;;;2.43;1.93;;;17.60;60.80;;;;;;5222849;28;20705;-73
2022/03/29 05:34:15;;;;;;;3.23;2.57;;;17.60;60.80;;;;;;5242901;28;20220;-73
2022/03/29 05:37:07;;;;;;;2.77;2.10;;;17.60;60.80;;;;;;5242357;28;20267;-72
2022/03/29 05:40:00;;;;;;;3.50;2.40;;;17.60;60.80;;;;;;5242072;28;20196;-72
2022/03/29 05:42:54;;;;;;;3.13;2.40;;;17.60;60.80;;;;;;5242504;28;20219;-73
2022/03/29 05:48:51;;;;;;;2.70;2.27;;;17.60;60.80;;;;;;5232214;28;20207;-72
2022/03/29 05:48:59;;;;;;;3.33;2.33;;;17.60;61.40;;;;;;5223334;28;20251;-72
2022/03/29 05:51:52;;;;;;;3.20;2.20;;;17.60;60.90;;;;;;5223077;28;20192;-72
2022/03/29 05:54:45;;;;;;;3.47;2.67;;;17.60;60.90;;;;;;5226668;28;20303;-72
2022/03/29 05:57:37;;;;;;;4.27;2.53;;;17.60;60.90;;;;;;5242471;28;20899;-72
2022/03/29 06:00:31;;;;;;;2.70;2.30;;;17.60;60.90;;;;;;5236383;28;20284;-73
2022/03/29 06:03:23;;;;;;;2.87;2.50;;;17.60;60.90;;;;;;5229574;28;20699;-72
2022/03/29 06:06:16;;;;;;;3.50;2.53;;;17.50;60.80;;;;;;5242498;28;20559;-72
2022/03/29 06:09:08;;;;;;;3.17;2.60;;;17.50;60.60;;;;;;5243578;28;20719;-72
2022/03/29 06:12:00;;;;;;;4.67;3.03;;;17.50;60.80;;;;;;5242609;28;20226;-72
2022/03/29 06:14:52;;;;;;;7.43;3.33;;;17.50;60.90;;;;;;5242458;28;20699;-72
2022/03/29 06:17:46;;;;;;;5.23;3.43;;;17.50;60.70;;;;;;5242391;28;20707;-72
2022/03/29 06:20:38;;;;;;;4.87;3.90;;;17.50;60.60;;;;;;5242300;28;20222;-71
2022/03/29 06:23:30;;;;;;;4.43;3.00;;;17.50;60.40;;;;;;5237896;28;20331;-72
2022/03/29 06:26:22;;;;;;;5.30;3.43;;;17.50;60.50;;;;;;5242189;28;20188;-72
2022/03/29 06:29:14;;;;;;;5.23;4.00;;;17.50;60.40;;;;;;5240836;28;20212;-72
2022/03/29 06:32:07;;;;;;;5.23;3.93;;;17.50;60.30;;;;;;5241667;28;20202;-72
2022/03/29 06:35:01;;;;;;;10.57;4.97;;;17.50;60.00;;;;;;5242874;28;20201;-72
2022/03/29 06:37:56;;;;;;;5.77;4.70;;;17.50;60.00;;;;;;5245688;28;20533;-72
2022/03/29 06:40:49;;;;;;;6.63;4.20;;;17.50;60.00;;;;;;5245704;28;20204;-72
2022/03/29 06:43:41;;;;;;;5.77;4.73;;;17.50;60.10;;;;;;5246052;28;20269;-72
2022/03/29 06:46:34;;;;;;;7.83;4.97;;;17.50;60.00;;;;;;5245693;28;20189;-71
2022/03/29 06:49:26;;;;;;;6.43;4.90;;;17.50;59.90;;;;;;5246548;28;20216;-71
2022/03/29 06:52:19;;;;;;;6.53;4.83;;;17.50;59.60;;;;;;5245471;28;20234;-71
2022/03/29 06:55:15;;;;;;;6.13;4.87;;;17.50;59.50;;;;;;5246559;28;20250;-71
2022/03/29 06:58:07;;;;;;;6.40;4.80;;;17.50;59.70;;;;;;5247766;28;20563;-71
2022/03/29 07:00:59;;;;;;;5.93;4.47;;;17.50;59.50;;;;;;5245736;28;20253;-71
2022/03/29 07:03:51;;;;;;;7.80;5.47;;;17.50;59.40;;;;;;5246515;28;20220;-71
2022/03/29 07:06:43;;;;;;;7.97;5.87;;;17.50;59.20;;;;;;5245612;28;20196;-69
2022/03/29 07:12:51;;;;;;;9.53;6.33;;;17.50;59.10;;;;;;5246792;28;20779;-71
2022/03/29 07:15:43;;;;;;;11.07;7.83;;;17.50;58.50;;;;;;5245449;28;20973;-71
2022/03/29 07:18:35;;;;;;;12.20;7.77;;;17.50;58.20;;;;;;5243405;28;20272;-70
2022/03/29 07:21:27;;;;;;;12.00;8.07;;;17.50;58.00;;;;;;5246046;28;20189;-71
2022/03/29 07:24:20;;;;;;;11.50;8.10;;;17.50;57.80;;;;;;5243961;28;20596;-71
2022/03/29 07:27:14;;;;;;;13.73;8.40;;;17.50;57.50;;;;;;5243744;28;20676;-70
2022/03/29 07:30:07;;;;;;;11.87;7.90;;;17.40;56.90;;;;;;5246118;28;20199;-71
2022/03/29 07:32:59;;;;;;;13.50;7.57;;;17.40;57.20;;;;;;5246014;28;20297;-70
2022/03/29 07:35:52;;;;;;;11.00;8.37;;;17.50;57.40;;;;;;5246026;28;20314;-71
2022/03/29 07:38:45;;;;;;;14.70;8.37;;;17.40;57.20;;;;;;5245218;28;20266;-70
2022/03/29 07:41:37;;;;;;;13.23;8.43;;;17.40;57.20;;;;;;5244790;28;20219;-70
2022/03/29 07:44:31;;;;;;;12.93;7.60;;;17.40;56.60;;;;;;5244893;28;20216;-71
2022/03/29 07:47:23;;;;;;;14.10;7.30;;;17.40;56.50;;;;;;5242747;28;20692;-72
2022/03/29 07:50:15;;;;;;;12.63;6.83;;;17.40;57.00;;;;;;5245930;28;20196;-71
2022/03/29 07:53:07;;;;;;;12.47;6.43;;;17.40;57.00;;;;;;5245783;28;20220;-71
2022/03/29 07:55:59;;;;;;;10.67;6.37;;;17.40;56.80;;;;;;5245871;28;20200;-73
2022/03/29 07:58:52;;;;;;;10.13;5.80;;;17.40;56.80;;;;;;5241005;28;20207;-71
2022/03/29 08:01:45;;;;;;;9.27;5.33;;;17.40;57.30;;;;;;5245116;28;20203;-70
2022/03/29 08:04:37;;;;;;;10.37;5.13;;;17.40;57.50;;;;;;5245464;28;20223;-71
2022/03/29 08:07:30;;;;;;;9.47;5.07;;;17.40;57.60;;;;;;5244947;28;20663;-71
2022/03/29 08:10:22;;;;;;;9.63;4.70;;;17.40;57.70;;;;;;5244723;28;20193;-71
2022/03/29 08:13:15;;;;;;;10.13;4.43;;;17.50;57.80;;;;;;5244824;28;20216;-72
2022/03/29 08:16:07;;;;;;;7.73;3.87;;;17.50;58.00;;;;;;5244349;28;20228;-72
2022/03/29 08:19:01;;;;;;;10.63;4.80;;;17.50;58.10;;;;;;5243986;28;20329;-71
2022/03/29 08:21:53;;;;;;;7.97;4.20;;;17.50;58.20;;;;;;5244557;28;20327;-71
2022/03/29 08:24:45;;;;;;;6.00;3.63;;;17.50;58.30;;;;;;5243889;28;20224;-71
2022/03/29 08:27:38;;;;;;;6.03;3.87;;;17.50;58.40;;;;;;5244369;28;20857;-72
2022/03/29 08:30:31;;;;;;;6.37;3.60;;;17.50;58.50;;;;;;5243966;28;20196;-71
2022/03/29 08:33:23;;;;;;;7.63;3.70;;;17.50;58.60;;;;;;5244022;28;20213;-72
2022/03/29 08:36:17;;;;;;;6.73;3.97;;;17.50;58.70;;;;;;5244815;28;20214;-71
2022/03/29 08:39:10;;;;;;;3.73;2.87;;;17.50;58.80;;;;;;5243762;28;20207;-71
2022/03/29 08:42:07;;;;;;;7.73;3.50;;;17.50;58.90;;;;;;5243666;28;20204;-71
2022/03/29 08:45:00;;;;;;;7.00;3.43;;;17.50;58.90;;;;;;5242844;28;20675;-72
2022/03/29 08:47:55;;;;;;;6.00;3.17;;;17.50;59.10;;;;;;5243258;28;20390;-71
2022/03/29 08:50:47;;;;;;;5.13;3.20;;;17.50;59.10;;;;;;5243185;28;20235;-72
2022/03/29 08:53:44;;;;;;;5.70;3.13;;;17.50;59.10;;;;;;5244332;28;20226;-72
2022/03/29 08:56:36;;;;;;;5.63;3.10;;;17.60;59.30;;;;;;5246538;28;20603;-72
2022/03/29 08:59:29;;;;;;;5.60;3.07;;;17.50;59.30;;;;;;5242981;28;20192;-70
2022/03/29 09:02:21;;;;;;;6.17;2.77;;;17.50;59.30;;;;;;5242130;28;20203;-70
2022/03/29 09:05:15;;;;;;;6.33;2.97;;;17.50;59.30;;;;;;5243242;28;20193;-71
2022/03/29 09:08:09;;;;;;;4.97;2.80;;;17.50;59.30;;;;;;5243403;28;20241;-72
2022/03/29 09:11:04;;;;;;;6.27;2.87;;;17.50;59.30;;;;;;5238796;28;20224;-70
2022/03/29 09:14:03;;;;;;;4.53;2.67;;;17.50;59.40;;;;;;5242964;28;20702;-71
2022/03/29 09:16:56;;;;;;;4.97;2.87;;;17.50;59.40;;;;;;5243241;28;20227;-72
2022/03/29 09:19:51;;;;;;;3.57;2.37;;;17.50;59.40;;;;;;5242877;28;20219;-71
2022/03/29 09:22:46;;;;;;;4.43;2.37;;;17.50;59.40;;;;;;5243286;28;20275;-71
2022/03/29 09:25:46;;;;;;;6.50;2.50;;;17.60;59.60;;;;;;5243553;28;20350;-71
2022/03/29 09:28:40;;;;;;;3.87;2.40;;;17.50;59.50;;;;;;5242515;28;20811;-70
2022/03/29 09:31:32;;;;;;;2.30;1.93;;;17.60;59.60;;;;;;5242735;28;20188;-71
2022/03/29 09:34:24;;;;;;;3.63;2.70;;;17.50;59.60;;;;;;5242905;28;20584;-70
2022/03/29 09:37:34;;;;;;;2.90;2.17;;;17.50;59.60;;;;;;5242019;28;20231;-71
2022/03/29 09:40:44;;;;;;;3.23;2.00;;;17.50;59.70;;;;;;5242714;28;20192;-70
2022/03/29 09:43:36;;;;;;;4.07;2.50;;;17.50;59.70;;;;;;5243172;28;20216;-71
2022/03/29 09:46:30;;;;;;;3.70;2.07;;;17.60;59.80;;;;;;5242597;28;20204;-71
2022/03/29 09:49:22;;;;;;;6.30;2.50;;;17.60;59.80;;;;;;5242595;28;20273;-71
2022/03/29 09:52:16;;;;;;;4.10;2.07;;;17.50;59.70;;;;;;5242610;28;20203;-71
2022/03/29 09:55:14;;;;;;;3.37;2.40;;;17.50;59.70;;;;;;5243368;28;20196;-70
2022/03/29 09:58:15;;;;;;;3.37;1.90;;;17.60;59.80;;;;;;5242240;28;20693;-70
2022/03/29 10:01:21;;;;;;;4.07;2.50;;;17.50;59.80;;;;;;5241522;28;20193;-70
2022/03/29 10:04:16;;;;;;;3.70;2.00;;;17.60;59.80;;;;;;5243441;28;20223;-71
2022/03/29 10:07:11;;;;;;;4.27;2.10;;;17.60;59.90;;;;;;5244193;28;20929;-70
2022/03/29 10:10:04;;;;;;;4.40;2.30;;;17.60;59.90;;;;;;5244145;28;20220;-70
2022/03/29 10:12:56;;;;;;;3.30;2.10;;;17.60;60.00;;;;;;5248349;28;20637;-70
2022/03/29 10:15:48;;;;;;;3.43;2.00;;;17.50;59.90;;;;;;5248824;28;20200;-70
2022/03/29 10:18:42;;;;;;;6.47;2.30;;;17.60;60.00;;;;;;5248875;28;20681;-70
2022/03/29 10:21:36;;;;;;;3.77;1.97;;;17.60;60.00;;;;;;5250138;28;20679;-70
2022/03/29 10:24:29;;;;;;;2.93;2.10;;;17.60;60.10;;;;;;5250279;28;20224;-70
2022/03/29 10:27:22;;;;;;;4.03;2.20;;;17.60;60.10;;;;;;5249085;28;20196;-70
2022/03/29 10:30:31;;;;;;;2.70;1.90;;;17.60;60.10;;;;;;5250288;28;20683;-70
2022/03/29 10:33:25;;;;;;;3.53;2.10;;;17.60;60.10;;;;;;5249529;28;20697;-70
2022/03/29 10:36:17;;;;;;;7.37;2.40;;;17.60;60.20;;;;;;5248852;28;20196;-70
2022/03/29 10:39:11;;;;;;;3.63;2.20;;;17.60;60.20;;;;;;5248852;28;20201;-70
2022/03/29 10:42:03;;;;;;;3.47;2.30;;;17.60;60.30;;;;;;5250135;28;20199;-70
2022/03/29 10:45:17;;;;;;;2.63;1.93;;;17.60;60.30;;;;;;5248755;28;20200;-70
2022/03/29 10:48:12;;;;;;;3.90;2.23;;;17.60;60.30;;;;;;5236796;28;20211;-70
2022/03/29 10:51:04;;;;;;;3.70;2.17;;;17.60;60.40;;;;;;5249357;28;20204;-68
2022/03/29 10:54:23;;;;;;;3.30;2.10;;;17.60;61.00;;;;;;5248113;28;20222;-71
2022/03/29 10:57:20;;;;;;;4.07;2.33;;;17.60;60.40;;;;;;5250168;28;20603;-71
2022/03/29 11:00:22;;;;;;;3.83;2.10;;;17.60;60.50;;;;;;5250299;28;20192;-70
2022/03/29 11:03:20;;;;;;;2.77;1.97;;;17.60;60.40;;;;;;5250038;28;20227;-71
2022/03/29 11:06:17;;;;;;;3.17;2.20;;;17.60;60.50;;;;;;5240719;28;20682;-71
2022/03/29 11:09:16;;;;;;;2.83;2.00;;;17.60;60.50;;;;;;5250297;28;20220;-71
2022/03/29 11:12:38;;;;;;;4.00;2.10;;;17.60;60.50;;;;;;5249271;28;20192;-70
2022/03/29 11:15:48;;;;;;;3.03;1.90;;;17.60;60.50;;;;;;5254764;28;20210;-70
2022/03/29 11:18:41;;;;;;;3.83;2.07;;;17.60;60.60;;;;;;5250660;28;20218;-70
2022/03/29 11:21:38;;;;;;;4.20;2.00;;;17.60;60.60;;;;;;5249022;28;20207;-70
2022/03/29 11:24:30;;;;;;;2.47;1.70;;;17.60;60.60;;;;;;5246611;28;20725;-71
2022/03/29 11:27:23;;;;;;;2.93;1.70;;;17.60;60.60;;;;;;5246132;28;20276;-71
2022/03/29 11:30:18;;;;;;;3.07;1.97;;;17.60;60.70;;;;;;5245539;28;20219;-71
2022/03/29 11:33:12;;;;;;;3.17;2.10;;;17.60;60.70;;;;;;5245573;28;20472;-71
2022/03/29 11:36:08;;;;;;;3.57;1.90;;;17.60;60.90;;;;;;5245626;28;20567;-71
2022/03/29 11:39:00;;;;;;;3.00;1.87;;;17.60;60.70;;;;;;5246337;28;20201;-71
2022/03/29 11:41:54;;;;;;;2.03;1.50;;;17.60;60.60;;;;;;5245858;28;20246;-71
2022/03/29 11:44:48;;;;;;;3.30;2.17;;;17.60;60.60;;;;;;5245138;28;20216;-70
2022/03/29 11:47:52;;;;;;;5.53;2.00;;;17.60;60.60;;;;;;5236856;28;20672;-71
2022/03/29 11:50:48;;;;;;;3.47;2.17;;;17.60;60.60;;;;;;5245674;28;20707;-71
2022/03/29 11:53:40;;;;;;;2.07;1.60;;;17.60;60.50;;;;;;5245751;28;20685;-70
2022/03/29 11:56:37;;;;;;;3.90;1.80;;;17.60;60.50;;;;;;5246049;28;20197;-70
2022/03/29 11:59:32;;;;;;;4.67;1.77;;;17.60;60.50;;;;;;5246239;28;20999;-71
2022/03/29 12:02:26;;;;;;;2.60;1.80;;;17.60;60.50;;;;;;5244458;28;20208;-71
2022/03/29 12:05:24;;;;;;;3.77;1.70;;;17.60;60.60;;;;;;5223303;28;20201;-71
2022/03/29 12:08:16;;;;;;;3.30;2.00;;;17.60;60.60;;;;;;5223665;28;20692;-71
2022/03/29 12:11:09;;;;;;;2.43;1.93;;;17.60;60.70;;;;;;5222640;28;20216;-71
2022/03/29 12:14:07;;;;;;;4.73;1.67;;;17.60;60.70;;;;;;5224216;28;20217;-73
2022/03/29 12:17:04;;;;;;;3.37;1.83;;;17.60;60.80;;;;;;5224324;28;20197;-72
2022/03/29 12:19:57;;;;;;;2.70;1.73;;;17.60;60.80;;;;;;5224356;28;20189;-73
2022/03/29 12:22:51;;;;;;;2.93;1.90;;;17.60;60.80;;;;;;5223622;28;20221;-73
2022/03/29 12:25:43;;;;;;;2.73;1.70;;;17.60;60.90;;;;;;5223564;28;20798;-72
2022/03/29 12:28:36;;;;;;;3.00;1.70;;;17.60;60.90;;;;;;5222350;28;20208;-72
2022/03/29 12:31:29;;;;;;;3.40;1.83;;;17.60;60.90;;;;;;5223263;28;20186;-71
2022/03/29 12:34:24;;;;;;;4.90;1.70;;;17.60;61.00;;;;;;5222773;28;20217;-72
2022/03/29 12:37:17;;;;;;;2.50;1.67;;;17.60;60.90;;;;;;5223572;28;20201;-67
2022/03/29 12:40:14;;;;;;;2.40;1.60;;;17.60;61.00;;;;;;5223596;28;20203;-67
2022/03/29 12:43:08;;;;;;;4.47;2.13;;;17.60;60.90;;;;;;5222362;28;20217;-68
2022/03/29 12:46:00;;;;;;;2.97;1.87;;;17.60;60.90;;;;;;5222866;28;20211;-67
2022/03/29 12:48:53;;;;;;;3.53;1.90;;;17.60;61.00;;;;;;5223244;28;20656;-68
2022/03/29 12:51:54;;;;;;;2.57;1.73;;;17.60;61.00;;;;;;5221167;28;20280;-67
2022/03/29 12:54:50;;;;;;;3.40;1.80;;;17.60;60.90;;;;;;5223112;28;20225;-68
2022/03/29 12:57:44;;;;;;;2.40;2.00;;;17.60;61.00;;;;;;5219550;28;20204;-68
2022/03/29 13:00:41;;;;;;;2.90;1.77;;;17.60;61.00;;;;;;5221883;28;20676;-67
2022/03/29 13:03:38;;;;;;;2.40;1.67;;;17.60;61.00;;;;;;5231149;28;20235;-71
2022/03/29 13:06:39;;;;;;;3.60;2.10;;;17.60;61.10;;;;;;5251019;28;20192;-71
2022/03/29 13:09:31;;;;;;;2.30;1.63;;;17.60;61.20;;;;;;5243092;28;20685;-72
2022/03/29 13:12:23;;;;;;;3.10;1.93;;;17.60;61.20;;;;;;5243928;28;20575;-71
2022/03/29 13:15:51;;;;;;;3.07;1.60;;;17.60;61.20;;;;;;5243817;28;20205;-73
2022/03/29 13:18:50;;;;;;;2.97;2.00;;;17.60;61.20;;;;;;5242986;28;20227;-72
2022/03/29 13:21:45;;;;;;;4.83;2.07;;;17.60;61.10;;;;;;5243460;28;20268;-73
2022/03/29 13:24:39;;;;;;;5.77;2.33;;;17.60;61.10;;;;;;5244447;28;20269;-73
2022/03/29 13:27:31;;;;;;;3.20;2.03;;;17.60;61.10;;;;;;5242258;28;20211;-71
2022/03/29 13:30:23;;;;;;;3.17;1.83;;;17.60;61.20;;;;;;5244327;28;20238;-72
2022/03/29 13:33:15;;;;;;;6.87;1.97;;;17.60;61.20;;;;;;5244039;28;20611;-72
2022/03/29 13:36:10;;;;;;;3.03;1.83;;;17.60;61.20;;;;;;5242943;28;20231;-72
2022/03/29 13:39:04;;;;;;;3.93;1.80;;;17.60;61.20;;;;;;5244410;28;20879;-72
2022/03/29 13:41:56;;;;;;;6.73;2.10;;;17.60;61.20;;;;;;5243298;28;20192;-72
2022/03/29 13:44:48;;;;;;;3.17;1.93;;;17.60;61.20;;;;;;5242721;28;20326;-71
2022/03/29 13:47:41;;;;;;;2.83;1.70;;;17.60;61.20;;;;;;5241641;28;20703;-71
2022/03/29 13:50:34;;;;;;;2.83;1.60;;;17.60;61.20;;;;;;5242151;28;20217;-72
2022/03/29 13:53:27;;;;;;;2.50;2.00;;;17.60;61.20;;;;;;5243299;28;20266;-72
2022/03/29 13:56:21;;;;;;;2.60;1.67;;;17.60;61.20;;;;;;5242209;28;20192;-72
2022/03/29 13:59:13;;;;;;;2.67;1.47;;;17.70;61.20;;;;;;5244341;28;20235;-71
2022/03/29 14:02:05;;;;;;;2.23;1.50;;;17.60;61.20;;;;;;5235445;28;20687;-71
2022/03/29 14:04:57;;;;;;;3.90;1.57;;;17.60;61.30;;;;;;5241933;28;20652;-70
2022/03/29 14:07:49;;;;;;;2.33;1.50;;;17.60;61.30;;;;;;5242384;28;20557;-70
2022/03/29 14:10:43;;;;;;;4.60;2.00;;;17.60;61.40;;;;;;5243396;28;20224;-71
2022/03/29 14:13:36;;;;;;;2.57;1.40;;;17.70;61.40;;;;;;5242262;28;20797;-70
2022/03/29 14:16:29;;;;;;;2.33;1.40;;;17.60;61.40;;;;;;5240747;28;20193;-71
2022/03/29 14:19:21;;;;;;;2.87;1.70;;;17.60;61.40;;;;;;5235519;28;20205;-71
2022/03/29 14:22:14;;;;;;;1.87;1.30;;;17.70;61.30;;;;;;5230770;28;20493;-71
2022/03/29 14:25:07;;;;;;;2.00;1.60;;;17.60;61.20;;;;;;5233909;28;20203;-70
2022/03/29 14:28:00;;;;;;;3.10;1.97;;;17.60;61.20;;;;;;5242804;28;20737;-70
2022/03/29 14:30:53;;;;;;;1.90;1.57;;;17.60;61.20;;;;;;5242691;28;20216;-70
2022/03/29 14:33:46;;;;;;;2.23;1.40;;;17.60;61.30;;;;;;5222014;28;20266;-70
2022/03/29 14:36:40;;;;;;;3.27;1.80;;;17.60;61.30;;;;;;5222549;28;20572;-70
2022/03/29 14:39:32;;;;;;;3.00;1.87;;;17.70;61.40;;;;;;5222605;28;20204;-70
2022/03/29 14:42:24;;;;;;;2.37;1.50;;;17.70;61.40;;;;;;5222209;28;20199;-70
2022/03/29 14:45:19;;;;;;;3.67;1.77;;;17.70;61.40;;;;;;5230815;28;20649;-70
2022/03/29 14:48:12;;;;;;;3.57;1.50;;;17.70;61.40;;;;;;5226038;28;20660;-70
2022/03/29 14:51:05;;;;;;;3.17;1.60;;;17.70;61.40;;;;;;5241513;28;20216;-70
2022/03/29 14:53:57;;;;;;;2.53;1.77;;;17.70;61.40;;;;;;5242371;28;20216;-70
2022/03/29 14:56:50;;;;;;;3.50;1.40;;;17.70;62.00;;;;;;5242940;28;20197;-69
2022/03/29 14:59:42;;;;;;;1.97;1.43;;;17.70;61.40;;;;;;5238754;28;20701;-70
2022/03/29 15:02:36;;;;;;;1.70;1.40;;;17.70;61.40;;;;;;5246073;28;20249;-69
2022/03/29 15:05:28;;;;;;;2.40;1.77;;;17.60;61.30;;;;;;5240542;28;20681;-70